createdAt,value
2019-02-04T00:00:32.954Z,5.92
2019-02-04T00:03:06.345Z,8.00
2019-02-04T00:05:38.883Z,7.72
2019-02-04T00:08:10.848Z,7.03
2019-02-04T00:10:42.157Z,6.42
2019-02-04T00:13:14.177Z,5.97
2019-02-04T00:15:45.841Z,5.47
2019-02-04T00:18:18.102Z,3.47
2019-02-04T00:20:49.091Z,4.28
2019-02-04T00:23:21.210Z,10.93
2019-02-04T00:25:52.810Z,3.72
2019-02-04T00:28:24.174Z,5.37
2019-02-04T00:30:55.619Z,4.35
2019-02-04T00:33:26.961Z,6.62
2019-02-04T00:35:59.021Z,5.17
2019-02-04T00:38:30.589Z,6.90
2019-02-04T00:41:02.224Z,6.72
2019-02-04T00:43:34.840Z,2.08
2019-02-04T00:46:06.929Z,8.55
2019-02-04T00:48:38.225Z,5.65
2019-02-04T00:51:10.081Z,6.17
2019-02-04T00:53:41.998Z,7.17
2019-02-04T00:56:14.205Z,3.87
2019-02-04T00:58:46.015Z,3.70
2019-02-04T01:01:17.012Z,3.42
2019-02-04T01:03:48.701Z,3.52
2019-02-04T01:06:20.458Z,2.02
2019-02-04T01:08:53.930Z,3.40
2019-02-04T01:11:25.565Z,3.60
2019-02-04T01:13:57.162Z,3.47
2019-02-04T01:16:28.994Z,7.95
2019-02-04T01:19:00.499Z,3.70
2019-02-04T01:21:31.879Z,4.53
2019-02-04T01:24:03.670Z,3.70
2019-02-04T01:26:35.490Z,2.40
2019-02-04T01:29:07.029Z,6.15
2019-02-04T01:31:38.921Z,5.20
2019-02-04T01:34:10.605Z,4.05
2019-02-04T01:36:42.464Z,2.77
2019-02-04T01:39:13.780Z,6.12
2019-02-04T01:41:45.460Z,3.87
2019-02-04T01:44:17.060Z,4.40
2019-02-04T01:46:48.411Z,3.52
2019-02-04T01:49:19.980Z,4.58
2019-02-04T01:51:51.880Z,5.22
2019-02-04T01:54:22.964Z,6.90
2019-02-04T01:56:54.745Z,8.05
2019-02-04T01:59:26.430Z,9.53
2019-02-04T02:01:57.630Z,6.65
2019-02-04T02:04:29.333Z,4.87
2019-02-04T02:07:00.962Z,5.90
2019-02-04T02:09:32.238Z,4.03
2019-02-04T02:12:03.553Z,6.55
2019-02-04T02:14:35.211Z,6.58
2019-02-04T02:17:06.720Z,8.28
2019-02-04T02:19:38.714Z,4.35
2019-02-04T02:22:11.092Z,5.87
2019-02-04T02:24:42.948Z,6.25
2019-02-04T02:27:14.844Z,4.85
2019-02-04T02:29:46.158Z,7.33
2019-02-04T02:32:18.187Z,3.70
2019-02-04T02:34:49.473Z,8.03
2019-02-04T02:37:21.448Z,7.97
2019-02-04T02:39:53.022Z,6.33
2019-02-04T02:42:24.330Z,7.08
2019-02-04T02:44:56.081Z,7.53
2019-02-04T02:47:37.825Z,10.15
2019-02-04T02:50:00.759Z,4.72
2019-02-04T02:52:32.393Z,9.50
2019-02-04T02:55:03.466Z,7.12
2019-02-04T02:57:35.741Z,3.85
2019-02-04T03:00:11.253Z,5.10
2019-02-04T03:02:43.215Z,5.45
2019-02-04T03:05:15.915Z,7.70
2019-02-04T03:07:47.193Z,5.15
2019-02-04T03:10:25.437Z,3.30
2019-02-04T03:12:58.256Z,4.85
2019-02-04T03:15:29.974Z,3.25
2019-02-04T03:18:01.558Z,4.28
2019-02-04T03:20:32.931Z,7.00
2019-02-04T03:23:05.050Z,4.62
2019-02-04T03:25:37.231Z,6.55
2019-02-04T03:28:08.894Z,6.20
2019-02-04T03:30:40.575Z,4.40
2019-02-04T03:33:12.506Z,5.40
2019-02-04T03:35:44.443Z,6.15
2019-02-04T03:38:16.267Z,2.85
2019-02-04T03:40:47.579Z,5.28
2019-02-04T03:43:19.440Z,4.20
2019-02-04T03:45:51.168Z,3.75
2019-02-04T03:48:23.436Z,6.12
2019-02-04T03:50:54.778Z,3.90
2019-02-04T03:53:26.356Z,7.95
2019-02-04T03:55:59.046Z,4.08
2019-02-04T03:58:31.227Z,6.20
2019-02-04T04:01:02.612Z,5.58
2019-02-04T04:03:34.192Z,8.80
2019-02-04T04:06:06.242Z,4.47
2019-02-04T04:08:37.919Z,4.33
2019-02-04T04:11:09.616Z,5.55
2019-02-04T04:13:41.471Z,4.97
2019-02-04T04:16:13.543Z,5.10
2019-02-04T04:18:46.090Z,4.72
2019-02-04T04:21:18.564Z,3.77
2019-02-04T04:23:50.423Z,8.10
2019-02-04T04:26:21.757Z,6.40
2019-02-04T04:28:53.968Z,7.28
2019-02-04T04:31:25.927Z,8.80
2019-02-04T04:33:57.870Z,6.75
2019-02-04T04:36:30.169Z,7.80
2019-02-04T04:39:01.435Z,7.60
2019-02-04T04:41:34.491Z,7.45
2019-02-04T04:44:06.732Z,6.17
2019-02-04T04:46:38.376Z,8.75
2019-02-04T04:49:09.392Z,11.48
2019-02-04T04:51:40.678Z,7.78
2019-02-04T04:54:12.295Z,9.35
2019-02-04T04:56:43.546Z,8.90
2019-02-04T04:59:15.346Z,8.68
2019-02-04T05:01:47.612Z,6.62
2019-02-04T05:04:19.305Z,10.23
2019-02-04T05:06:50.673Z,9.45
2019-02-04T05:09:22.482Z,8.60
2019-02-04T05:11:54.958Z,11.25
2019-02-04T05:14:26.576Z,8.85
2019-02-04T05:16:57.818Z,9.88
2019-02-04T05:19:29.701Z,10.78
2019-02-04T05:22:01.350Z,10.90
2019-02-04T05:24:32.905Z,8.75
2019-02-04T05:27:04.522Z,8.65
2019-02-04T05:29:36.443Z,7.22
2019-02-04T05:32:08.028Z,9.10
2019-02-04T05:34:39.321Z,13.18
2019-02-04T05:37:11.142Z,10.48
2019-02-04T05:39:42.736Z,11.95
2019-02-04T05:42:14.593Z,10.28
2019-02-04T05:44:46.462Z,9.95
2019-02-04T05:47:18.173Z,13.10
2019-02-04T05:49:49.728Z,12.13
2019-02-04T05:52:20.939Z,12.45
2019-02-04T05:54:52.781Z,13.72
2019-02-04T05:57:24.721Z,12.05
2019-02-04T05:59:56.314Z,11.68
2019-02-04T06:02:27.339Z,11.95
2019-02-04T06:04:58.673Z,14.43
2019-02-04T06:07:29.694Z,11.43
2019-02-04T06:10:01.114Z,12.33
2019-02-04T06:12:34.970Z,13.53
2019-02-04T06:15:07.101Z,14.00
2019-02-04T06:17:38.175Z,13.55
2019-02-04T06:20:13.455Z,14.28
2019-02-04T06:22:45.053Z,14.80
2019-02-04T06:25:16.925Z,15.35
2019-02-04T06:27:48.356Z,13.65
2019-02-04T06:30:20.430Z,12.78
2019-02-04T06:32:52.095Z,15.28
2019-02-04T06:35:24.161Z,16.10
2019-02-04T06:37:55.741Z,12.15
2019-02-04T06:40:27.361Z,13.62
2019-02-04T06:42:58.706Z,15.53
2019-02-04T06:45:31.076Z,12.40
2019-02-04T06:48:02.382Z,15.65
2019-02-04T06:50:33.726Z,15.98
2019-02-04T06:53:05.718Z,14.15
2019-02-04T06:55:37.367Z,14.07
2019-02-04T06:58:08.609Z,19.07
2019-02-04T07:00:40.160Z,17.20
2019-02-04T07:03:11.485Z,15.28
2019-02-04T07:05:44.166Z,14.45
2019-02-04T07:08:15.834Z,12.30
2019-02-04T07:10:47.795Z,16.62
2019-02-04T07:13:19.031Z,13.43
2019-02-04T07:15:50.400Z,16.52
2019-02-04T07:18:22.044Z,17.32
2019-02-04T07:20:53.361Z,14.65
2019-02-04T07:23:24.668Z,16.75
2019-02-04T07:25:56.319Z,13.58
2019-02-04T07:28:27.938Z,15.58
2019-02-04T07:30:59.392Z,15.65
2019-02-04T07:33:30.636Z,12.68
2019-02-04T07:36:03.528Z,13.80
2019-02-04T07:38:35.211Z,12.45
2019-02-04T07:41:06.964Z,12.55
2019-02-04T07:43:38.518Z,15.15
2019-02-04T07:46:09.964Z,12.60
2019-02-04T07:48:41.480Z,12.58
2019-02-04T07:51:13.223Z,15.65
2019-02-04T07:53:44.888Z,15.30
2019-02-04T07:56:16.173Z,13.78
2019-02-04T07:58:47.808Z,13.75
2019-02-04T08:01:19.773Z,13.10
2019-02-04T08:03:51.954Z,11.30
2019-02-04T08:06:24.844Z,13.75
2019-02-04T08:08:56.805Z,13.15
2019-02-04T08:11:28.652Z,12.53
2019-02-04T08:14:20.409Z,12.30
2019-02-04T08:16:53.289Z,14.50
2019-02-04T08:19:25.163Z,13.15
2019-02-04T08:21:56.791Z,12.78
2019-02-04T08:24:28.514Z,11.88
2019-02-04T08:27:00.327Z,11.00
2019-02-04T08:29:32.477Z,11.65
2019-02-04T08:32:03.751Z,12.50
2019-02-04T08:34:35.984Z,11.30
2019-02-04T08:37:07.343Z,12.25
2019-02-04T08:39:39.868Z,10.50
2019-02-04T08:42:12.035Z,10.30
2019-02-04T08:44:43.829Z,13.22
2019-02-04T08:47:22.905Z,12.65
2019-02-04T08:49:57.983Z,8.15
2019-02-04T08:52:21.834Z,9.33
2019-02-04T08:54:53.849Z,10.18
2019-02-04T08:57:25.587Z,9.85
2019-02-04T08:59:57.618Z,9.08
2019-02-04T09:02:28.997Z,10.50
2019-02-04T09:05:00.655Z,8.55
2019-02-04T09:07:32.408Z,8.80
2019-02-04T09:10:05.030Z,7.85
2019-02-04T09:12:37.485Z,7.50
2019-02-04T09:15:11.715Z,8.83
2019-02-04T09:17:43.437Z,8.13
2019-02-04T09:20:16.623Z,6.97
2019-02-04T09:22:47.729Z,6.93
2019-02-04T09:25:19.825Z,8.35
2019-02-04T09:27:52.204Z,6.97
2019-02-04T09:30:25.551Z,8.63
2019-02-04T09:32:57.825Z,7.50
2019-02-04T09:35:29.714Z,8.33
2019-02-04T09:38:01.481Z,7.87
2019-02-04T09:40:45.424Z,8.45
2019-02-04T09:43:17.289Z,7.72
2019-02-04T09:45:48.911Z,8.10
2019-02-04T09:48:21.978Z,6.20
2019-02-04T09:50:57.324Z,8.50
2019-02-04T09:53:28.888Z,5.85
2019-02-04T09:56:00.985Z,7.17
2019-02-04T09:58:32.336Z,6.58
2019-02-04T10:01:04.495Z,8.57
2019-02-04T10:03:35.812Z,7.92
2019-02-04T10:06:07.675Z,8.38
2019-02-04T10:08:39.644Z,7.20
2019-02-04T10:11:11.077Z,7.80
2019-02-04T10:13:42.076Z,5.30
2019-02-04T10:16:13.582Z,7.05
2019-02-04T10:18:44.866Z,9.18
2019-02-04T10:21:16.642Z,7.22
2019-02-04T10:23:48.718Z,6.87
2019-02-04T10:26:20.541Z,8.63
2019-02-04T10:28:52.011Z,7.33
2019-02-04T10:31:24.220Z,7.03
2019-02-04T10:33:56.991Z,7.08
2019-02-04T10:36:28.851Z,7.63
2019-02-04T10:39:00.753Z,8.05
2019-02-04T10:41:34.099Z,7.12
2019-02-04T10:44:06.169Z,6.40
2019-02-04T10:46:38.413Z,8.48
2019-02-04T10:49:10.141Z,6.90
2019-02-04T10:51:41.641Z,7.40
2019-02-04T10:54:14.250Z,8.23
2019-02-04T10:56:46.666Z,9.28
2019-02-04T10:59:18.250Z,7.50
2019-02-04T11:01:49.559Z,7.70
2019-02-04T11:04:20.909Z,7.60
2019-02-04T11:06:52.652Z,8.55
2019-02-04T11:09:24.529Z,9.30
2019-02-04T11:11:56.491Z,7.53
2019-02-04T11:14:28.116Z,8.43
2019-02-04T11:16:59.573Z,5.70
2019-02-04T11:19:31.448Z,8.35
2019-02-04T11:22:02.840Z,7.33
2019-02-04T11:24:35.113Z,8.03
2019-02-04T11:27:07.011Z,5.85
2019-02-04T11:29:38.396Z,8.40
2019-02-04T11:32:10.182Z,7.72
2019-02-04T11:34:41.475Z,7.58
2019-02-04T11:37:12.907Z,6.47
2019-02-04T11:39:45.960Z,8.48
2019-02-04T11:42:17.221Z,8.00
2019-02-04T11:44:50.499Z,8.05
2019-02-04T11:47:22.121Z,7.97
2019-02-04T11:49:54.108Z,8.43
2019-02-04T11:52:26.349Z,9.48
2019-02-04T11:54:57.975Z,10.58
2019-02-04T11:57:29.661Z,9.38
2019-02-04T12:00:01.468Z,8.75
2019-02-04T12:02:34.875Z,10.93
2019-02-04T12:05:09.298Z,10.18
2019-02-04T12:07:41.570Z,9.68
2019-02-04T12:10:26.919Z,9.83
2019-02-04T12:12:58.916Z,9.58
2019-02-04T12:15:31.323Z,9.40
2019-02-04T12:18:02.615Z,9.83
2019-02-04T12:20:34.709Z,8.03
2019-02-04T12:23:06.658Z,9.40
2019-02-04T12:25:39.313Z,8.70
2019-02-04T12:28:10.489Z,10.40
2019-02-04T12:30:43.043Z,9.58
2019-02-04T12:33:15.043Z,10.30
2019-02-04T12:35:46.979Z,8.25
2019-02-04T12:38:19.230Z,8.30
2019-02-04T12:40:51.138Z,7.08
2019-02-04T12:43:22.505Z,7.85
2019-02-04T12:45:55.156Z,8.33
2019-02-04T12:48:26.771Z,8.43
2019-02-04T12:50:58.604Z,12.85
2019-02-04T12:53:30.607Z,7.65
2019-02-04T12:56:02.046Z,9.83
2019-02-04T12:58:33.835Z,9.83
2019-02-04T13:01:06.615Z,9.75
2019-02-04T13:03:37.974Z,9.03
2019-02-04T13:06:11.901Z,9.75
2019-02-04T13:08:43.614Z,10.43
2019-02-04T13:11:15.176Z,12.20
2019-02-04T13:13:47.158Z,11.43
2019-02-04T13:16:18.575Z,11.00
2019-02-04T13:18:50.848Z,11.63
2019-02-04T13:21:21.908Z,11.53
2019-02-04T13:23:53.779Z,9.65
2019-02-04T13:26:25.085Z,12.23
2019-02-04T13:28:57.132Z,10.53
2019-02-04T13:31:28.149Z,12.10
2019-02-04T13:33:59.982Z,11.05
2019-02-04T13:36:31.369Z,10.08
2019-02-04T13:39:03.369Z,8.15
2019-02-04T13:41:36.543Z,13.70
2019-02-04T13:44:08.622Z,12.55
2019-02-04T13:46:39.938Z,10.93
2019-02-04T13:49:11.359Z,10.30
2019-02-04T13:51:44.408Z,10.00
2019-02-04T13:54:16.453Z,10.78
2019-02-04T13:56:48.236Z,9.75
2019-02-04T13:59:20.062Z,11.15
2019-02-04T14:01:52.180Z,9.65
2019-02-04T14:04:24.214Z,8.55
2019-02-04T14:06:55.827Z,10.82
2019-02-04T14:09:27.210Z,10.93
2019-02-04T14:11:58.629Z,10.98
2019-02-04T14:14:30.514Z,9.40
2019-02-04T14:17:02.417Z,9.10
2019-02-04T14:19:34.023Z,9.08
2019-02-04T14:22:09.382Z,12.07
2019-02-04T14:24:39.101Z,9.03
2019-02-04T14:27:11.438Z,11.38
2019-02-04T14:29:42.532Z,9.85
2019-02-04T14:32:13.971Z,8.75
2019-02-04T14:34:45.810Z,8.48
2019-02-04T14:37:17.255Z,8.15
2019-02-04T14:39:48.885Z,8.58
2019-02-04T14:42:21.282Z,10.00
2019-02-04T14:45:28.594Z,13.88
2019-02-04T14:48:25.412Z,9.48
2019-02-04T14:51:57.738Z,8.10
2019-02-04T14:55:34.654Z,7.85
2019-02-04T14:58:39.168Z,10.45
2019-02-04T15:01:58.995Z,8.73
2019-02-04T15:05:29.416Z,9.15
2019-02-04T15:08:51.966Z,8.60
2019-02-04T15:12:05.248Z,7.87
2019-02-04T15:15:25.552Z,10.08
2019-02-04T15:18:46.782Z,9.18
2019-02-04T15:22:07.579Z,10.00
2019-02-04T15:25:26.823Z,9.80
2019-02-04T15:28:16.098Z,11.22
2019-02-04T15:31:51.016Z,10.13
2019-02-04T15:35:27.949Z,9.80
2019-02-04T15:39:18.796Z,10.10
2019-02-04T15:42:32.256Z,8.80
2019-02-04T15:45:21.282Z,9.33
2019-02-04T15:48:17.583Z,11.60
2019-02-04T15:51:34.530Z,11.10
2019-02-04T15:54:09.638Z,8.68
2019-02-04T15:56:41.425Z,12.28
2019-02-04T15:59:13.325Z,11.33
2019-02-04T16:01:45.513Z,10.13
2019-02-04T16:04:37.152Z,13.22
2019-02-04T16:07:11.116Z,12.40
2019-02-04T16:09:42.409Z,13.40
2019-02-04T16:12:14.322Z,11.53
2019-02-04T16:14:45.637Z,11.70
2019-02-04T16:17:17.520Z,17.23
2019-02-04T16:19:48.825Z,16.60
2019-02-04T16:22:20.508Z,18.82
2019-02-04T16:24:52.390Z,16.05
2019-02-04T16:27:25.038Z,17.85
2019-02-04T16:29:57.297Z,17.17
2019-02-04T16:32:29.290Z,21.27
2019-02-04T16:35:00.952Z,25.48
2019-02-04T16:37:32.993Z,19.98
2019-02-04T16:40:06.435Z,20.37
2019-02-04T16:42:37.701Z,17.23
2019-02-04T16:45:09.719Z,19.00
2019-02-04T16:47:41.554Z,20.77
2019-02-04T16:50:23.271Z,21.82
2019-02-04T16:52:55.146Z,17.60
2019-02-04T16:55:27.349Z,18.90
2019-02-04T16:57:58.519Z,16.32
2019-02-04T17:00:32.062Z,15.03
2019-02-04T17:03:03.873Z,14.20
2019-02-04T17:05:35.504Z,16.82
2019-02-04T17:08:08.462Z,12.98
2019-02-04T17:10:40.826Z,17.40
2019-02-04T17:13:12.957Z,15.72
2019-02-04T17:15:44.755Z,15.95
2019-02-04T17:18:16.154Z,23.92
2019-02-04T17:20:48.704Z,18.07
2019-02-04T17:23:22.495Z,17.25
2019-02-04T17:25:53.272Z,19.32
2019-02-04T17:28:24.924Z,21.52
2019-02-04T17:30:56.270Z,22.58
2019-02-04T17:33:28.339Z,17.98
2019-02-04T17:36:00.220Z,18.87
2019-02-04T17:38:31.610Z,21.35
2019-02-04T17:41:02.886Z,16.40
2019-02-04T17:43:34.675Z,23.05
2019-02-04T17:46:06.717Z,20.75
2019-02-04T17:48:39.150Z,15.15
2019-02-04T17:51:10.495Z,19.62
2019-02-04T17:53:42.194Z,19.05
2019-02-04T17:56:14.435Z,18.55
2019-02-04T17:58:46.011Z,20.85
2019-02-04T18:01:17.519Z,22.40
2019-02-04T18:03:48.617Z,17.00
2019-02-04T18:06:20.666Z,12.07
2019-02-04T18:08:52.332Z,12.03
2019-02-04T18:11:24.624Z,15.30
2019-02-04T18:13:55.999Z,14.30
2019-02-04T18:16:27.677Z,10.93
2019-02-04T18:18:59.323Z,12.90
2019-02-04T18:21:30.877Z,12.13
2019-02-04T18:24:01.879Z,14.00
2019-02-04T18:26:33.471Z,14.90
2019-02-04T18:29:05.116Z,13.62
2019-02-04T18:31:36.997Z,12.95
2019-02-04T18:34:08.669Z,16.85
2019-02-04T18:36:40.045Z,13.18
2019-02-04T18:39:12.155Z,14.18
2019-02-04T18:41:43.843Z,13.98
2019-02-04T18:44:15.358Z,11.28
2019-02-04T18:46:48.269Z,12.63
2019-02-04T18:49:19.799Z,10.25
2019-02-04T18:51:51.072Z,10.63
2019-02-04T18:54:22.682Z,12.98
2019-02-04T18:56:54.887Z,11.43
2019-02-04T18:59:26.397Z,10.03
2019-02-04T19:01:57.755Z,11.38
2019-02-04T19:04:28.764Z,13.90
2019-02-04T19:07:01.642Z,10.05
2019-02-04T19:09:33.939Z,10.55
2019-02-04T19:12:06.402Z,10.65
2019-02-04T19:14:37.675Z,13.05
2019-02-04T19:17:09.235Z,10.30
2019-02-04T19:19:40.502Z,9.23
2019-02-04T19:22:12.164Z,10.28
2019-02-04T19:24:43.801Z,11.97
2019-02-04T19:27:15.661Z,8.88
2019-02-04T19:29:46.888Z,11.95
2019-02-04T19:32:18.887Z,9.30
2019-02-04T19:34:50.711Z,10.43
2019-02-04T19:37:23.041Z,10.68
2019-02-04T19:39:54.649Z,8.53
2019-02-04T19:42:26.200Z,8.65
2019-02-04T19:44:58.150Z,12.18
2019-02-04T19:47:30.044Z,9.35
2019-02-04T19:50:01.684Z,9.08
2019-02-04T19:52:33.210Z,8.58
2019-02-04T19:55:05.032Z,9.78
2019-02-04T19:57:36.311Z,8.13
2019-02-04T20:00:12.031Z,7.08
2019-02-04T20:02:43.069Z,8.15
2019-02-04T20:05:17.892Z,6.95
2019-02-04T20:07:49.150Z,10.53
2019-02-04T20:10:23.999Z,8.13
2019-02-04T20:12:55.342Z,7.50
2019-02-04T20:15:28.698Z,8.50
2019-02-04T20:18:03.042Z,7.08
2019-02-04T20:20:34.576Z,5.45
2019-02-04T20:23:06.097Z,8.15
2019-02-04T20:25:37.531Z,6.25
2019-02-04T20:28:09.112Z,8.45
2019-02-04T20:30:45.668Z,7.40
2019-02-04T20:33:15.984Z,6.12
2019-02-04T20:35:47.343Z,6.30
2019-02-04T20:38:18.726Z,5.87
2019-02-04T20:40:50.670Z,7.60
2019-02-04T20:43:22.633Z,7.65
2019-02-04T20:45:54.220Z,7.92
2019-02-04T20:48:26.040Z,6.67
2019-02-04T20:51:00.077Z,8.18
2019-02-04T20:53:31.252Z,7.33
2019-02-04T20:56:04.738Z,7.75
2019-02-04T20:58:36.616Z,6.67
2019-02-04T21:01:08.483Z,7.95
2019-02-04T21:03:40.248Z,6.85
2019-02-04T21:06:11.990Z,5.03
2019-02-04T21:08:43.221Z,6.45
2019-02-04T21:11:14.495Z,9.33
2019-02-04T21:13:46.667Z,5.70
2019-02-04T21:16:18.324Z,5.58
2019-02-04T21:18:50.576Z,7.10
2019-02-04T21:21:22.249Z,7.15
2019-02-04T21:23:53.576Z,6.20
2019-02-04T21:26:25.343Z,6.35
2019-02-04T21:28:57.447Z,6.10
2019-02-04T21:31:30.318Z,9.15
2019-02-04T21:34:02.568Z,7.20
2019-02-04T21:36:33.898Z,6.75
2019-02-04T21:39:09.511Z,5.65
2019-02-04T21:41:41.670Z,6.40
2019-02-04T21:44:13.295Z,6.65
2019-02-04T21:46:44.919Z,15.48
2019-02-04T21:49:16.449Z,8.85
2019-02-04T21:51:47.909Z,6.97
2019-02-04T21:54:19.196Z,6.20
2019-02-04T21:56:51.050Z,6.85
2019-02-04T21:59:23.144Z,6.55
2019-02-04T22:01:55.906Z,6.87
2019-02-04T22:04:27.441Z,7.42
2019-02-04T22:07:00.035Z,5.97
2019-02-04T22:09:31.940Z,6.40
2019-02-04T22:12:03.319Z,6.65
2019-02-04T22:14:34.596Z,7.00
2019-02-04T22:17:07.220Z,5.85
2019-02-04T22:19:39.023Z,5.20
2019-02-04T22:22:11.257Z,5.22
2019-02-04T22:24:42.914Z,7.08
2019-02-04T22:27:14.552Z,5.83
2019-02-04T22:29:46.404Z,6.42
2019-02-04T22:32:17.746Z,5.35
2019-02-04T22:34:49.540Z,6.17
2019-02-04T22:37:21.098Z,5.92
2019-02-04T22:39:52.339Z,6.15
2019-02-04T22:42:23.396Z,6.08
2019-02-04T22:44:55.012Z,7.75
2019-02-04T22:47:26.017Z,4.80
2019-02-04T22:49:57.317Z,5.65
2019-02-04T22:52:29.210Z,6.20
2019-02-04T22:55:00.702Z,7.47
2019-02-04T22:57:32.569Z,7.42
2019-02-04T23:00:06.714Z,6.42
2019-02-04T23:02:38.809Z,6.08
2019-02-04T23:05:10.702Z,4.87
2019-02-04T23:07:42.669Z,4.20
2019-02-04T23:10:14.831Z,4.55
2019-02-04T23:12:46.553Z,6.20
2019-02-04T23:15:18.689Z,7.80
2019-02-04T23:17:50.314Z,5.12
2019-02-04T23:20:22.219Z,5.65
2019-02-04T23:22:53.554Z,6.92
2019-02-04T23:25:25.209Z,4.85
2019-02-04T23:27:56.959Z,5.37
2019-02-04T23:30:27.943Z,5.97
2019-02-04T23:32:59.647Z,4.45
2019-02-04T23:35:31.413Z,6.03
2019-02-04T23:38:03.720Z,6.28
2019-02-04T23:40:35.441Z,6.78
2019-02-04T23:43:07.308Z,6.30
2019-02-04T23:45:39.169Z,6.08
2019-02-04T23:48:11.144Z,7.28
2019-02-04T23:50:42.219Z,5.80
2019-02-04T23:53:13.487Z,6.35
2019-02-04T23:55:54.337Z,6.33
2019-02-04T23:58:18.032Z,5.47
